createdAt,value
2023-01-21T00:00:44.781Z,1.10
2023-01-21T00:03:08.936Z,1.13
2023-01-21T00:05:35.312Z,1.10
2023-01-21T00:08:02.740Z,1.20
2023-01-21T00:10:28.039Z,1.10
2023-01-21T00:12:54.390Z,1.10
2023-01-21T00:15:20.792Z,1.07
2023-01-21T00:20:29.388Z,1.10
2023-01-21T00:22:55.780Z,1.00
2023-01-21T00:25:22.121Z,1.10
2023-01-21T00:27:48.511Z,1.13
2023-01-21T00:30:15.045Z,1.10
2023-01-21T00:32:41.265Z,1.10
2023-01-21T00:35:07.678Z,1.00
2023-01-21T00:37:34.072Z,1.20
2023-01-21T00:40:00.445Z,1.00
2023-01-21T00:42:26.829Z,1.10
2023-01-21T00:44:53.175Z,1.20
2023-01-21T00:47:19.623Z,1.10
2023-01-21T00:49:45.966Z,1.00
2023-01-21T00:52:12.361Z,1.30
2023-01-21T00:54:38.703Z,1.20
2023-01-21T00:57:05.099Z,1.00
2023-01-21T00:59:31.437Z,1.10
2023-01-21T01:01:57.832Z,1.07
2023-01-21T01:04:24.188Z,1.10
2023-01-21T01:06:50.600Z,1.10
2023-01-21T01:09:16.948Z,1.20
2023-01-21T01:11:43.341Z,1.13
2023-01-21T01:14:09.671Z,1.00
2023-01-21T01:16:36.078Z,1.13
2023-01-21T01:19:02.421Z,1.10
2023-01-21T01:21:28.804Z,1.17
2023-01-21T01:23:55.156Z,1.10
2023-01-21T01:26:21.550Z,1.20
2023-01-21T01:28:47.895Z,1.10
2023-01-21T01:31:14.369Z,1.20
2023-01-21T01:33:40.614Z,1.30
2023-01-21T01:36:07.002Z,1.20
2023-01-21T01:38:33.355Z,1.10
2023-01-21T01:40:59.752Z,1.00
2023-01-21T01:43:26.088Z,1.23
2023-01-21T01:45:52.469Z,1.30
2023-01-21T01:48:18.817Z,1.10
2023-01-21T01:50:45.236Z,1.20
2023-01-21T01:53:11.565Z,1.00
2023-01-21T01:55:37.944Z,1.10
2023-01-21T01:58:04.329Z,1.00
2023-01-21T02:00:30.707Z,1.10
2023-01-21T02:02:57.089Z,1.10
2023-01-21T02:05:23.444Z,1.03
2023-01-21T02:07:49.793Z,1.10
2023-01-21T02:10:16.519Z,1.20
2023-01-21T02:12:42.535Z,1.10
2023-01-21T02:15:10.129Z,1.30
2023-01-21T02:17:35.248Z,1.10
2023-01-21T02:20:01.634Z,1.30
2023-01-21T02:22:27.981Z,1.10
2023-01-21T02:24:54.373Z,1.20
2023-01-21T02:27:29.987Z,1.10
2023-01-21T02:29:47.133Z,1.10
2023-01-21T02:32:13.477Z,1.13
2023-01-21T02:34:39.870Z,1.10
2023-01-21T02:37:07.233Z,1.30
2023-01-21T02:39:32.623Z,1.20
2023-01-21T02:41:58.969Z,1.10
2023-01-21T02:44:25.440Z,1.10
2023-01-21T02:46:51.870Z,1.13
2023-01-21T02:49:18.203Z,1.00
2023-01-21T02:51:44.545Z,1.20
2023-01-21T02:54:10.940Z,1.30
2023-01-21T02:56:37.291Z,1.20
2023-01-21T02:59:03.673Z,1.10
2023-01-21T03:01:30.017Z,1.20
2023-01-21T03:03:56.404Z,1.10
2023-01-21T03:06:22.745Z,1.27
2023-01-21T03:08:49.141Z,1.10
2023-01-21T03:11:15.491Z,1.40
2023-01-21T03:13:41.863Z,1.10
2023-01-21T03:16:08.232Z,1.10
2023-01-21T03:18:34.613Z,1.27
2023-01-21T03:21:00.942Z,1.20
2023-01-21T03:23:27.328Z,1.23
2023-01-21T03:25:53.676Z,1.10
2023-01-21T03:28:20.064Z,1.00
2023-01-21T03:30:46.421Z,1.03
2023-01-21T03:33:12.810Z,1.10
2023-01-21T03:35:39.151Z,1.17
2023-01-21T03:38:05.544Z,1.10
2023-01-21T03:40:31.894Z,1.23
2023-01-21T03:42:58.290Z,1.20
2023-01-21T03:45:24.702Z,1.10
2023-01-21T03:47:51.064Z,1.20
2023-01-21T03:50:17.648Z,1.00
2023-01-21T03:52:43.805Z,1.20
2023-01-21T03:55:10.151Z,1.20
2023-01-21T03:57:36.535Z,1.30
2023-01-21T04:00:02.888Z,1.10
2023-01-21T04:02:29.326Z,1.13
2023-01-21T04:04:55.659Z,1.10
2023-01-21T04:07:22.044Z,1.17
2023-01-21T04:09:48.406Z,1.10
2023-01-21T04:12:14.794Z,1.20
2023-01-21T04:14:41.128Z,1.10
2023-01-21T04:17:07.523Z,1.17
2023-01-21T04:19:33.861Z,1.23
2023-01-21T04:22:00.292Z,1.10
2023-01-21T04:24:26.642Z,1.20
2023-01-21T04:26:53.031Z,1.10
2023-01-21T04:29:19.380Z,1.10
2023-01-21T04:31:45.851Z,1.30
2023-01-21T04:34:12.109Z,1.20
2023-01-21T04:36:39.814Z,1.30
2023-01-21T04:39:04.879Z,1.20
2023-01-21T04:41:31.255Z,1.30
2023-01-21T04:43:57.640Z,1.10
2023-01-21T04:46:23.987Z,1.20
2023-01-21T04:48:50.416Z,1.30
2023-01-21T04:51:16.788Z,1.30
2023-01-21T04:53:43.138Z,1.10
2023-01-21T04:56:09.501Z,1.00
2023-01-21T04:58:35.878Z,1.10
2023-01-21T05:01:02.270Z,1.20
2023-01-21T05:03:28.631Z,1.00
2023-01-21T05:05:54.942Z,1.27
2023-01-21T05:08:21.376Z,1.10
2023-01-21T05:10:47.701Z,1.30
2023-01-21T05:13:14.100Z,1.10
2023-01-21T05:15:40.436Z,1.13
2023-01-21T05:18:06.817Z,1.10
2023-01-21T05:20:33.165Z,1.10
2023-01-21T05:22:59.549Z,1.30
2023-01-21T05:25:25.893Z,1.00
2023-01-21T05:27:52.314Z,1.10
2023-01-21T05:30:18.816Z,1.00
2023-01-21T05:32:45.043Z,1.00
2023-01-21T05:35:11.439Z,1.00
2023-01-21T05:37:37.829Z,1.30
2023-01-21T05:40:04.257Z,1.17
2023-01-21T05:42:30.645Z,1.20
2023-01-21T05:44:56.987Z,1.00
2023-01-21T05:47:23.370Z,1.17
2023-01-21T05:49:49.746Z,1.20
2023-01-21T05:52:16.167Z,1.10
2023-01-21T05:54:59.930Z,1.10
2023-01-21T05:57:08.939Z,1.20
2023-01-21T05:59:35.278Z,1.20
2023-01-21T06:02:01.710Z,1.20
2023-01-21T06:04:28.013Z,1.17
2023-01-21T06:06:54.393Z,1.33
2023-01-21T06:09:20.735Z,1.13
2023-01-21T06:11:47.118Z,1.27
2023-01-21T06:14:13.469Z,1.10
2023-01-21T06:16:39.852Z,1.13
2023-01-21T06:19:06.201Z,1.20
2023-01-21T06:21:32.584Z,1.30
2023-01-21T06:23:58.924Z,1.20
2023-01-21T06:26:27.116Z,1.20
2023-01-21T06:28:51.683Z,1.37
2023-01-21T06:31:18.135Z,1.30
2023-01-21T06:33:44.433Z,1.30
2023-01-21T06:36:10.811Z,1.17
2023-01-21T06:38:37.154Z,1.33
2023-01-21T06:41:03.555Z,1.70
2023-01-21T06:43:29.916Z,1.70
2023-01-21T06:45:56.323Z,1.77
2023-01-21T06:48:22.647Z,2.03
2023-01-21T06:50:49.074Z,1.90
2023-01-21T06:53:15.396Z,2.20
2023-01-21T06:55:41.775Z,2.30
2023-01-21T06:58:08.125Z,2.23
2023-01-21T07:00:34.515Z,2.10
2023-01-21T07:03:00.924Z,2.93
2023-01-21T07:05:27.277Z,2.07
2023-01-21T07:07:53.620Z,1.93
2023-01-21T07:10:20.000Z,2.07
2023-01-21T07:12:46.345Z,2.00
2023-01-21T07:15:12.730Z,2.30
2023-01-21T07:17:39.065Z,2.13
2023-01-21T07:20:05.453Z,2.00
2023-01-21T07:22:31.801Z,1.90
2023-01-21T07:24:58.186Z,1.80
2023-01-21T07:27:24.522Z,2.00
2023-01-21T07:29:50.964Z,1.90
2023-01-21T07:32:17.313Z,1.60
2023-01-21T07:34:43.702Z,1.80
2023-01-21T07:37:10.032Z,1.70
2023-01-21T07:39:36.426Z,2.20
2023-01-21T07:42:02.772Z,2.50
2023-01-21T07:44:29.156Z,2.20
2023-01-21T07:46:55.498Z,2.37
2023-01-21T07:49:21.924Z,2.07
2023-01-21T07:51:48.272Z,2.10
2023-01-21T07:54:14.692Z,2.10
2023-01-21T07:56:41.013Z,1.90
2023-01-21T07:59:07.400Z,2.10
2023-01-21T08:01:33.760Z,1.90
2023-01-21T08:04:00.145Z,1.70
2023-01-21T08:06:26.509Z,1.70
2023-01-21T08:08:52.891Z,1.90
2023-01-21T08:11:19.264Z,1.83
2023-01-21T08:13:45.657Z,1.60
2023-01-21T08:16:12.058Z,1.70
2023-01-21T08:18:38.399Z,1.90
2023-01-21T08:21:04.770Z,1.90
2023-01-21T08:23:31.148Z,1.53
2023-01-21T08:25:57.496Z,1.67
2023-01-21T08:28:23.875Z,1.70
2023-01-21T08:30:50.238Z,1.70
2023-01-21T08:33:17.865Z,1.60
2023-01-21T08:35:42.981Z,1.50
2023-01-21T08:38:10.799Z,1.60
2023-01-21T08:40:35.703Z,1.30
2023-01-21T08:43:02.090Z,1.50
2023-01-21T08:45:29.671Z,1.90
2023-01-21T08:47:54.824Z,1.57
2023-01-21T08:50:21.162Z,1.60
2023-01-21T08:52:47.553Z,1.70
2023-01-21T08:55:13.925Z,1.33
2023-01-21T08:57:40.280Z,1.50
2023-01-21T09:00:06.641Z,1.43
2023-01-21T09:02:33.020Z,1.50
2023-01-21T09:04:59.355Z,1.70
2023-01-21T09:07:25.783Z,1.30
2023-01-21T09:09:52.120Z,1.40
2023-01-21T09:12:18.508Z,1.33
2023-01-21T09:14:44.843Z,1.40
2023-01-21T09:17:11.241Z,1.30
2023-01-21T09:19:38.822Z,1.30
2023-01-21T09:22:04.202Z,1.30
2023-01-21T09:24:32.721Z,1.70
2023-01-21T09:26:59.096Z,1.53
2023-01-21T09:29:25.442Z,1.30
2023-01-21T09:31:51.985Z,1.50
2023-01-21T09:34:18.204Z,1.40
2023-01-21T09:36:44.577Z,1.37
2023-01-21T09:39:10.915Z,1.40
2023-01-21T09:41:37.352Z,1.20
2023-01-21T09:44:03.680Z,1.50
2023-01-21T09:46:30.052Z,1.33
2023-01-21T09:48:56.418Z,1.33
2023-01-21T09:51:22.803Z,1.40
2023-01-21T09:53:49.159Z,1.33
2023-01-21T09:56:15.531Z,1.30
2023-01-21T09:58:41.875Z,1.53
2023-01-21T10:01:08.343Z,1.30
2023-01-21T10:03:34.619Z,1.20
2023-01-21T10:06:01.023Z,1.20
2023-01-21T10:08:27.339Z,1.27
2023-01-21T10:10:55.141Z,1.40
2023-01-21T10:13:20.062Z,1.40
2023-01-21T10:15:46.454Z,1.23
2023-01-21T10:18:12.808Z,1.30
2023-01-21T10:20:39.196Z,1.30
2023-01-21T10:23:06.732Z,1.13
2023-01-21T10:25:31.925Z,1.40
2023-01-21T10:27:58.254Z,1.10
2023-01-21T10:30:24.654Z,1.20
2023-01-21T10:32:51.019Z,1.30
2023-01-21T10:35:17.750Z,1.20
2023-01-21T10:37:43.755Z,1.30
2023-01-21T10:40:10.138Z,1.50
2023-01-21T10:42:37.751Z,1.23
2023-01-21T10:45:02.901Z,1.37
2023-01-21T10:50:14.556Z,1.10
2023-01-21T10:52:40.908Z,1.40
2023-01-21T10:55:07.286Z,1.20
2023-01-21T10:57:33.630Z,1.40
2023-01-21T11:00:00.030Z,1.63
2023-01-21T11:02:26.397Z,1.23
2023-01-21T11:04:52.743Z,1.30
2023-01-21T11:07:19.099Z,1.30
2023-01-21T11:09:45.471Z,1.17
2023-01-21T11:12:11.807Z,1.07
2023-01-21T11:14:38.203Z,1.10
2023-01-21T11:17:04.535Z,1.30
2023-01-21T11:19:30.952Z,1.20
2023-01-21T11:21:57.298Z,1.30
2023-01-21T11:24:23.709Z,1.23
2023-01-21T11:26:50.052Z,1.20
2023-01-21T11:29:16.452Z,1.30
2023-01-21T11:31:42.963Z,1.07
2023-01-21T11:34:09.197Z,1.37
2023-01-21T11:36:35.574Z,1.30
2023-01-21T11:39:01.973Z,1.10
2023-01-21T11:41:28.298Z,1.40
2023-01-21T11:43:54.708Z,1.10
2023-01-21T11:46:21.103Z,1.10
2023-01-21T11:48:47.426Z,1.30
2023-01-21T11:51:13.835Z,1.10
2023-01-21T11:53:40.148Z,1.30
2023-01-21T11:56:06.488Z,1.30
2023-01-21T11:58:32.888Z,1.23
2023-01-21T12:00:59.222Z,1.40
2023-01-21T12:03:25.636Z,1.10
2023-01-21T12:05:51.963Z,1.10
2023-01-21T12:08:18.386Z,1.07
2023-01-21T12:10:44.714Z,1.30
2023-01-21T12:13:11.092Z,1.10
2023-01-21T12:15:37.469Z,1.23
2023-01-21T12:18:03.827Z,1.20
2023-01-21T12:20:30.177Z,1.10
2023-01-21T12:22:56.560Z,1.27
2023-01-21T12:25:22.904Z,1.30
2023-01-21T12:27:49.287Z,1.07
2023-01-21T12:30:15.900Z,1.20
2023-01-21T12:32:42.078Z,1.27
2023-01-21T12:35:08.394Z,1.23
2023-01-21T12:37:34.790Z,1.30
2023-01-21T12:40:01.162Z,1.27
2023-01-21T12:42:27.512Z,1.30
2023-01-21T12:44:53.863Z,1.17
2023-01-21T12:47:20.242Z,1.13
2023-01-21T12:49:46.595Z,1.10
2023-01-21T12:52:12.996Z,1.00
2023-01-21T12:54:39.335Z,1.30
2023-01-21T12:57:05.723Z,1.20
2023-01-21T12:59:32.063Z,1.20
2023-01-21T13:01:58.527Z,1.20
2023-01-21T13:04:24.819Z,1.17
2023-01-21T13:06:54.103Z,1.20
2023-01-21T13:09:17.541Z,1.30
2023-01-21T13:11:43.939Z,1.17
2023-01-21T13:14:10.297Z,1.10
2023-01-21T13:16:36.766Z,1.33
2023-01-21T13:19:03.042Z,1.20
2023-01-21T13:21:29.416Z,1.20
2023-01-21T13:23:55.787Z,1.37
2023-01-21T13:26:22.150Z,1.30
2023-01-21T13:28:48.495Z,1.20
2023-01-21T13:31:15.005Z,1.40
2023-01-21T13:33:41.258Z,1.50
2023-01-21T13:36:07.651Z,1.10
2023-01-21T13:38:34.003Z,1.30
2023-01-21T13:41:00.398Z,1.20
2023-01-21T13:43:26.731Z,1.33
2023-01-21T13:45:53.183Z,1.20
2023-01-21T13:48:19.483Z,1.30
2023-01-21T13:50:45.952Z,1.37
2023-01-21T13:53:12.492Z,1.20
2023-01-21T13:55:38.836Z,1.30
2023-01-21T13:58:05.187Z,1.30
2023-01-21T14:00:31.694Z,1.30
2023-01-21T14:02:58.039Z,1.30
2023-01-21T14:05:24.450Z,1.30
2023-01-21T14:07:50.796Z,1.20
2023-01-21T14:10:17.424Z,1.20
2023-01-21T14:12:43.524Z,1.37
2023-01-21T14:15:09.921Z,1.40
2023-01-21T14:17:36.265Z,1.10
2023-01-21T14:20:02.645Z,1.40
2023-01-21T14:22:28.996Z,1.50
2023-01-21T14:24:55.375Z,1.20
2023-01-21T14:27:21.821Z,1.20
2023-01-21T14:29:48.295Z,1.20
2023-01-21T14:32:14.529Z,1.30
2023-01-21T14:34:40.933Z,1.43
2023-01-21T14:37:07.264Z,1.37
2023-01-21T14:39:33.712Z,1.40
2023-01-21T14:42:00.064Z,1.40
2023-01-21T14:44:26.411Z,1.30
2023-01-21T14:46:52.757Z,1.50
2023-01-21T14:49:19.138Z,1.43
2023-01-21T14:51:45.486Z,1.37
2023-01-21T14:54:11.914Z,1.30
2023-01-21T14:56:38.282Z,1.30
2023-01-21T14:59:04.668Z,1.60
2023-01-21T15:01:31.119Z,1.50
2023-01-21T15:03:57.425Z,1.50
2023-01-21T15:06:23.868Z,1.80
2023-01-21T15:08:50.207Z,1.37
2023-01-21T15:11:16.614Z,1.40
2023-01-21T15:13:43.010Z,1.40
2023-01-21T15:16:09.414Z,1.50
2023-01-21T15:18:35.743Z,1.30
2023-01-21T15:21:02.130Z,1.63
2023-01-21T15:23:28.474Z,1.53
2023-01-21T15:25:55.906Z,1.40
2023-01-21T15:28:22.243Z,1.30
2023-01-21T15:30:58.365Z,1.30
2023-01-21T15:33:14.984Z,1.47
2023-01-21T15:35:41.375Z,1.50
2023-01-21T15:38:07.705Z,1.20
2023-01-21T15:40:34.088Z,1.30
2023-01-21T15:43:00.435Z,1.47
2023-01-21T15:45:26.827Z,1.50
2023-01-21T15:47:53.162Z,1.23
2023-01-21T15:50:19.559Z,1.50
2023-01-21T15:52:45.902Z,1.20
2023-01-21T15:55:12.285Z,1.40
2023-01-21T15:57:38.740Z,1.30
2023-01-21T16:00:05.137Z,1.40
2023-01-21T16:02:31.529Z,1.50
2023-01-21T16:04:58.829Z,1.60
2023-01-21T16:07:24.220Z,1.50
2023-01-21T16:09:50.604Z,1.40
2023-01-21T16:12:16.989Z,1.40
2023-01-21T16:14:43.370Z,1.40
2023-01-21T16:19:55.035Z,1.50
2023-01-21T16:22:21.364Z,1.37
2023-01-21T16:24:47.749Z,1.40
2023-01-21T16:27:14.119Z,1.60
2023-01-21T16:29:40.503Z,1.20
2023-01-21T16:32:06.899Z,1.50
2023-01-21T16:34:35.316Z,1.40
2023-01-21T16:36:59.590Z,1.50
2023-01-21T16:39:25.996Z,1.40
2023-01-21T16:41:52.352Z,1.30
2023-01-21T16:44:18.736Z,1.30
2023-01-21T16:46:45.086Z,1.33
2023-01-21T16:49:11.472Z,1.20
2023-01-21T16:51:37.886Z,1.40
2023-01-21T16:54:04.269Z,1.47
2023-01-21T16:56:30.613Z,1.17
2023-01-21T16:58:56.994Z,1.30
2023-01-21T17:01:23.383Z,1.40
2023-01-21T17:03:49.766Z,1.37
2023-01-21T17:06:16.087Z,1.30
2023-01-21T17:08:42.489Z,1.30
2023-01-21T17:11:08.838Z,1.30
2023-01-21T17:13:35.222Z,1.40
2023-01-21T17:16:01.645Z,1.17
2023-01-21T17:18:27.956Z,1.17
2023-01-21T17:20:54.319Z,1.20
2023-01-21T17:23:20.713Z,1.30
2023-01-21T17:25:49.453Z,1.40
2023-01-21T17:28:15.834Z,1.33
2023-01-21T17:30:42.287Z,1.30
2023-01-21T17:33:08.567Z,1.40
2023-01-21T17:35:34.912Z,1.30
2023-01-21T17:38:01.295Z,1.43
2023-01-21T17:40:27.670Z,1.27
2023-01-21T17:42:54.028Z,1.20
2023-01-21T17:45:20.372Z,1.30
2023-01-21T17:48:07.261Z,1.20
2023-01-21T17:50:13.138Z,1.30
2023-01-21T17:52:39.532Z,1.30
2023-01-21T17:55:05.899Z,1.30
2023-01-21T17:57:32.308Z,1.40
2023-01-21T17:59:58.653Z,1.50
2023-01-21T18:02:25.104Z,1.30
2023-01-21T18:04:51.446Z,1.50
2023-01-21T18:07:17.835Z,1.23
2023-01-21T18:09:44.349Z,1.30
2023-01-21T18:12:10.703Z,1.20
2023-01-21T18:14:37.074Z,1.27
2023-01-21T18:17:03.454Z,1.27
2023-01-21T18:19:29.805Z,1.30
2023-01-21T18:21:56.188Z,1.50
2023-01-21T18:24:22.666Z,1.30
2023-01-21T18:26:48.988Z,1.30
2023-01-21T18:29:15.327Z,1.20
2023-01-21T18:31:41.837Z,1.30
2023-01-21T18:34:08.063Z,1.40
2023-01-21T18:36:34.461Z,1.20
2023-01-21T18:39:00.811Z,1.30
2023-01-21T18:41:27.194Z,1.30
2023-01-21T18:43:53.536Z,1.30
2023-01-21T18:46:20.018Z,1.27
2023-01-21T18:48:46.273Z,1.30
2023-01-21T18:51:12.730Z,1.40
2023-01-21T18:53:39.002Z,1.40
2023-01-21T18:56:05.422Z,1.20
2023-01-21T18:58:31.765Z,1.20
2023-01-21T19:00:58.161Z,1.30
2023-01-21T19:03:24.501Z,1.43
2023-01-21T19:05:50.900Z,1.40
2023-01-21T19:08:17.266Z,1.30
2023-01-21T19:10:43.660Z,1.23
2023-01-21T19:13:10.012Z,1.20
2023-01-21T19:15:36.389Z,1.33
2023-01-21T19:18:02.736Z,1.30
2023-01-21T19:20:29.141Z,1.30
2023-01-21T19:22:55.485Z,1.40
2023-01-21T19:25:21.894Z,1.30
2023-01-21T19:27:48.237Z,1.40
2023-01-21T19:30:14.803Z,1.20
2023-01-21T19:32:41.025Z,1.30
2023-01-21T19:35:07.397Z,1.40
2023-01-21T19:37:33.743Z,1.20
2023-01-21T19:40:00.137Z,1.50
2023-01-21T19:42:26.489Z,1.37
2023-01-21T19:44:52.903Z,1.30
2023-01-21T19:47:19.318Z,1.47
2023-01-21T19:49:45.708Z,1.30
2023-01-21T19:52:12.072Z,1.30
2023-01-21T19:54:38.461Z,1.30
2023-01-21T19:57:04.800Z,1.30
2023-01-21T19:59:31.184Z,1.20
2023-01-21T20:01:57.543Z,1.20
2023-01-21T20:04:23.933Z,1.40
2023-01-21T20:06:50.263Z,1.50
2023-01-21T20:09:16.645Z,1.57
2023-01-21T20:11:43.011Z,1.23
2023-01-21T20:14:09.396Z,1.30
2023-01-21T20:16:35.755Z,1.40
2023-01-21T20:19:02.166Z,1.30
2023-01-21T20:21:28.462Z,1.20
2023-01-21T20:23:54.882Z,1.53
2023-01-21T20:26:21.225Z,1.40
2023-01-21T20:28:47.727Z,1.27
2023-01-21T20:31:14.122Z,1.37
2023-01-21T20:33:41.927Z,1.30
2023-01-21T20:36:06.798Z,1.23
2023-01-21T20:38:33.153Z,1.57
2023-01-21T20:40:59.530Z,1.30
2023-01-21T20:43:25.918Z,1.33
2023-01-21T20:45:52.299Z,1.20
2023-01-21T20:48:18.655Z,1.30
2023-01-21T20:50:45.132Z,1.10
2023-01-21T20:53:11.420Z,1.47
2023-01-21T20:55:37.789Z,1.23
2023-01-21T20:58:04.185Z,1.60
2023-01-21T21:00:31.747Z,1.40
2023-01-21T21:02:56.980Z,1.40
2023-01-21T21:05:23.937Z,1.20
2023-01-21T21:07:49.673Z,1.33
2023-01-21T21:10:16.225Z,1.30
2023-01-21T21:12:42.421Z,1.40
2023-01-21T21:15:08.788Z,1.30
2023-01-21T21:17:35.185Z,1.57
2023-01-21T21:20:01.523Z,1.43
2023-01-21T21:22:27.905Z,1.50
2023-01-21T21:24:54.241Z,1.57
2023-01-21T21:27:20.630Z,1.27
2023-01-21T21:29:46.965Z,1.53
2023-01-21T21:32:13.439Z,1.23
2023-01-21T21:34:39.711Z,1.40
2023-01-21T21:37:06.092Z,1.30
2023-01-21T21:39:32.471Z,1.40
2023-01-21T21:41:58.849Z,1.50
2023-01-21T21:44:25.202Z,1.30
2023-01-21T21:46:51.585Z,1.43
2023-01-21T21:49:17.935Z,1.30
2023-01-21T21:51:45.798Z,1.20
2023-01-21T21:54:10.708Z,1.30
2023-01-21T21:56:37.081Z,1.50
2023-01-21T21:59:03.433Z,1.60
2023-01-21T22:01:30.614Z,1.10
2023-01-21T22:03:56.153Z,1.40
2023-01-21T22:06:22.540Z,1.60
2023-01-21T22:08:48.871Z,1.50
2023-01-21T22:11:15.271Z,1.50
2023-01-21T22:13:42.606Z,1.30
2023-01-21T22:16:07.996Z,1.20
2023-01-21T22:18:34.349Z,1.50
2023-01-21T22:21:00.719Z,1.40
2023-01-21T22:23:27.057Z,1.30
2023-01-21T22:25:53.444Z,1.40
2023-01-21T22:28:19.788Z,1.30
2023-01-21T22:30:46.296Z,1.53
2023-01-21T22:33:12.525Z,1.40
2023-01-21T22:35:38.904Z,1.40
2023-01-21T22:38:05.244Z,1.40
2023-01-21T22:40:31.649Z,1.67
2023-01-21T22:42:57.984Z,1.30
2023-01-21T22:45:24.627Z,1.50
2023-01-21T22:47:50.724Z,1.20
2023-01-21T22:50:17.112Z,1.30
2023-01-21T22:52:43.456Z,1.50
2023-01-21T22:55:09.848Z,1.47
2023-01-21T22:57:36.189Z,1.30
2023-01-21T23:00:02.770Z,1.40
2023-01-21T23:02:28.905Z,1.30
2023-01-21T23:04:55.339Z,1.40
2023-01-21T23:07:21.637Z,1.40
2023-01-21T23:09:48.029Z,1.70
2023-01-21T23:12:14.365Z,1.40
2023-01-21T23:14:40.750Z,1.37
2023-01-21T23:17:07.098Z,1.30
2023-01-21T23:19:33.514Z,1.37
2023-01-21T23:21:59.859Z,1.20
2023-01-21T23:24:26.265Z,1.30
2023-01-21T23:26:52.585Z,1.63
2023-01-21T23:29:19.031Z,1.70
2023-01-21T23:31:45.479Z,1.40
2023-01-21T23:34:11.763Z,1.67
2023-01-21T23:36:38.129Z,1.30
2023-01-21T23:39:04.520Z,1.40
2023-01-21T23:41:30.858Z,1.40
2023-01-21T23:43:57.236Z,1.10
2023-01-21T23:46:23.633Z,1.30
2023-01-21T23:48:49.999Z,1.33
2023-01-21T23:51:16.475Z,1.60
2023-01-21T23:53:42.778Z,1.40
2023-01-21T23:56:09.107Z,1.40
2023-01-21T23:58:35.485Z,1.40
